sensor_id;sensor_type;location;lat;lon;timestamp;pressure;altitude;pressure_sealevel;temperature;humidity
80759;BME280;70150;45.582;10.178;2023-08-06T00:00:41;98933.53;;;20.25;72.22
80759;BME280;70150;45.582;10.178;2023-08-06T00:03:06;98937.22;;;20.18;72.36
80759;BME280;70150;45.582;10.178;2023-08-06T00:05:32;98935.28;;;20.19;72.52
80759;BME280;70150;45.582;10.178;2023-08-06T00:07:57;98935.59;;;20.21;72.40
80759;BME280;70150;45.582;10.178;2023-08-06T00:10:23;98933.63;;;20.09;72.46
80759;BME280;70150;45.582;10.178;2023-08-06T00:12:49;98931.22;;;20.11;72.86
80759;BME280;70150;45.582;10.178;2023-08-06T00:15:14;98936.91;;;20.04;73.06
80759;BME280;70150;45.582;10.178;2023-08-06T00:17:40;98927.63;;;20.01;73.21
80759;BME280;70150;45.582;10.178;2023-08-06T00:20:06;98931.03;;;20.05;73.00
80759;BME280;70150;45.582;10.178;2023-08-06T00:22:33;98929.03;;;20.06;73.20
80759;BME280;70150;45.582;10.178;2023-08-06T00:24:59;98922.72;;;20.09;72.78
80759;BME280;70150;45.582;10.178;2023-08-06T00:27:25;98921.22;;;20.08;72.78
80759;BME280;70150;45.582;10.178;2023-08-06T00:29:50;98923.16;;;20.07;72.90
80759;BME280;70150;45.582;10.178;2023-08-06T00:32:16;98923.72;;;20.15;72.66
80759;BME280;70150;45.582;10.178;2023-08-06T00:34:42;98917.09;;;20.16;72.74
80759;BME280;70150;45.582;10.178;2023-08-06T00:37:08;98919.47;;;20.26;72.12
80759;BME280;70150;45.582;10.178;2023-08-06T00:39:33;98916.28;;;20.28;71.96
80759;BME280;70150;45.582;10.178;2023-08-06T00:41:59;98914.75;;;20.27;72.27
80759;BME280;70150;45.582;10.178;2023-08-06T00:44:24;98904.88;;;20.20;72.35
80759;BME280;70150;45.582;10.178;2023-08-06T00:46:50;98909.00;;;20.25;72.06
80759;BME280;70150;45.582;10.178;2023-08-06T00:49:16;98909.13;;;20.21;72.05
80759;BME280;70150;45.582;10.178;2023-08-06T00:51:42;98911.84;;;20.21;72.31
80759;BME280;70150;45.582;10.178;2023-08-06T00:54:09;98918.06;;;20.22;72.19
80759;BME280;70150;45.582;10.178;2023-08-06T00:56:36;98910.19;;;20.24;72.10
80759;BME280;70150;45.582;10.178;2023-08-06T00:59:04;98900.50;;;20.23;72.24
80759;BME280;70150;45.582;10.178;2023-08-06T01:01:30;98902.91;;;20.21;72.20
80759;BME280;70150;45.582;10.178;2023-08-06T01:03:56;98910.31;;;20.20;72.47
80759;BME280;70150;45.582;10.178;2023-08-06T01:09:00;98900.19;;;20.08;72.79
80759;BME280;70150;45.582;10.178;2023-08-06T01:11:33;98900.50;;;20.23;72.17
80759;BME280;70150;45.582;10.178;2023-08-06T01:14:08;98897.44;;;20.21;72.22
80759;BME280;70150;45.582;10.178;2023-08-06T01:16:39;98900.59;;;20.19;72.22
80759;BME280;70150;45.582;10.178;2023-08-06T01:19:16;98898.63;;;20.32;71.73
80759;BME280;70150;45.582;10.178;2023-08-06T01:21:42;98889.16;;;20.24;71.72
80759;BME280;70150;45.582;10.178;2023-08-06T01:24:08;98892.66;;;20.25;72.04
80759;BME280;70150;45.582;10.178;2023-08-06T01:26:43;98882.81;;;20.40;71.22
80759;BME280;70150;45.582;10.178;2023-08-06T01:29:16;98886.16;;;20.44;71.08
80759;BME280;70150;45.582;10.178;2023-08-06T01:31:48;98893.06;;;20.57;70.89
80759;BME280;70150;45.582;10.178;2023-08-06T01:34:21;98886.88;;;20.57;70.74
80759;BME280;70150;45.582;10.178;2023-08-06T01:36:47;98885.16;;;20.50;70.85
80759;BME280;70150;45.582;10.178;2023-08-06T01:39:15;98887.44;;;20.52;71.21
80759;BME280;70150;45.582;10.178;2023-08-06T01:41:41;98886.78;;;20.48;71.39
80759;BME280;70150;45.582;10.178;2023-08-06T01:44:07;98885.75;;;20.33;71.83
80759;BME280;70150;45.582;10.178;2023-08-06T01:46:32;98871.09;;;20.18;72.07
80759;BME280;70150;45.582;10.178;2023-08-06T01:48:58;98874.47;;;20.09;72.47
80759;BME280;70150;45.582;10.178;2023-08-06T01:51:24;98870.00;;;20.03;72.77
80759;BME280;70150;45.582;10.178;2023-08-06T01:53:49;98873.59;;;20.12;72.33
80759;BME280;70150;45.582;10.178;2023-08-06T01:56:15;98879.47;;;20.23;72.04
80759;BME280;70150;45.582;10.178;2023-08-06T01:58:41;98868.06;;;20.16;72.58
80759;BME280;70150;45.582;10.178;2023-08-06T02:01:06;98875.25;;;20.10;72.54
80759;BME280;70150;45.582;10.178;2023-08-06T02:03:32;98875.53;;;20.12;72.56
80759;BME280;70150;45.582;10.178;2023-08-06T02:06:00;98875.97;;;20.10;72.80
80759;BME280;70150;45.582;10.178;2023-08-06T02:08:27;98863.50;;;20.13;72.63
80759;BME280;70150;45.582;10.178;2023-08-06T02:10:52;98856.09;;;20.01;72.87
80759;BME280;70150;45.582;10.178;2023-08-06T02:13:21;98857.72;;;19.98;73.02
80759;BME280;70150;45.582;10.178;2023-08-06T02:15:46;98852.94;;;20.02;72.75
80759;BME280;70150;45.582;10.178;2023-08-06T02:18:13;98849.44;;;20.02;72.56
80759;BME280;70150;45.582;10.178;2023-08-06T02:20:40;98856.41;;;20.15;72.19
80759;BME280;70150;45.582;10.178;2023-08-06T02:23:06;98856.59;;;20.21;71.91
80759;BME280;70150;45.582;10.178;2023-08-06T02:25:32;98848.22;;;20.03;72.58
80759;BME280;70150;45.582;10.178;2023-08-06T02:27:57;98839.22;;;19.93;73.07
80759;BME280;70150;45.582;10.178;2023-08-06T02:30:23;98844.63;;;20.06;72.81
80759;BME280;70150;45.582;10.178;2023-08-06T02:32:49;98847.78;;;20.17;72.43
80759;BME280;70150;45.582;10.178;2023-08-06T02:35:14;98847.78;;;20.17;72.37
80759;BME280;70150;45.582;10.178;2023-08-06T02:37:40;98852.09;;;20.27;72.34
80759;BME280;70150;45.582;10.178;2023-08-06T02:40:06;98851.09;;;20.33;72.00
80759;BME280;70150;45.582;10.178;2023-08-06T02:42:32;98846.28;;;20.37;71.53
80759;BME280;70150;45.582;10.178;2023-08-06T02:44:58;98856.94;;;20.44;71.35
80759;BME280;70150;45.582;10.178;2023-08-06T02:47:24;98847.94;;;20.35;71.71
80759;BME280;70150;45.582;10.178;2023-08-06T02:49:49;98844.00;;;20.14;72.90
80759;BME280;70150;45.582;10.178;2023-08-06T02:52:15;98839.72;;;20.13;72.69
80759;BME280;70150;45.582;10.178;2023-08-06T02:54:40;98834.31;;;20.01;73.50
80759;BME280;70150;45.582;10.178;2023-08-06T02:57:06;98835.47;;;20.12;73.65
80759;BME280;70150;45.582;10.178;2023-08-06T02:59:33;98835.56;;;20.09;73.74
80759;BME280;70150;45.582;10.178;2023-08-06T03:02:01;98824.50;;;20.03;73.28
80759;BME280;70150;45.582;10.178;2023-08-06T03:04:28;98821.97;;;20.09;73.41
80759;BME280;70150;45.582;10.178;2023-08-06T03:06:54;98819.50;;;20.02;73.98
80759;BME280;70150;45.582;10.178;2023-08-06T03:09:20;98812.38;;;20.04;73.81
80759;BME280;70150;45.582;10.178;2023-08-06T03:11:45;98811.13;;;19.96;73.82
80759;BME280;70150;45.582;10.178;2023-08-06T03:14:13;98804.03;;;19.99;73.53
80759;BME280;70150;45.582;10.178;2023-08-06T03:16:38;98803.19;;;19.89;73.93
80759;BME280;70150;45.582;10.178;2023-08-06T03:19:04;98796.03;;;19.83;74.00
80759;BME280;70150;45.582;10.178;2023-08-06T03:21:29;98797.66;;;19.80;74.28
80759;BME280;70150;45.582;10.178;2023-08-06T03:23:55;98803.44;;;19.69;74.47
80759;BME280;70150;45.582;10.178;2023-08-06T03:26:21;98796.13;;;19.79;74.25
80759;BME280;70150;45.582;10.178;2023-08-06T03:28:46;98791.03;;;19.81;74.20
80759;BME280;70150;45.582;10.178;2023-08-06T03:31:12;98786.66;;;19.84;74.25
80759;BME280;70150;45.582;10.178;2023-08-06T03:33:37;98776.53;;;19.84;74.11
80759;BME280;70150;45.582;10.178;2023-08-06T03:36:03;98773.16;;;19.80;74.15
80759;BME280;70150;45.582;10.178;2023-08-06T03:38:31;98762.72;;;19.79;74.08
80759;BME280;70150;45.582;10.178;2023-08-06T03:40:57;98758.13;;;19.76;73.91
80759;BME280;70150;45.582;10.178;2023-08-06T03:43:22;98756.72;;;19.84;73.95
80759;BME280;70150;45.582;10.178;2023-08-06T03:45:50;98753.03;;;19.78;74.02
80759;BME280;70150;45.582;10.178;2023-08-06T03:48:16;98744.00;;;19.68;74.79
80759;BME280;70150;45.582;10.178;2023-08-06T03:50:41;98741.41;;;19.64;74.90
80759;BME280;70150;45.582;10.178;2023-08-06T03:53:07;98745.59;;;19.56;74.80
80759;BME280;70150;45.582;10.178;2023-08-06T03:55:32;98746.31;;;19.57;74.44
80759;BME280;70150;45.582;10.178;2023-08-06T03:57:58;98746.69;;;19.46;74.63
80759;BME280;70150;45.582;10.178;2023-08-06T04:00:26;98740.16;;;19.44;74.49
80759;BME280;70150;45.582;10.178;2023-08-06T04:02:51;98746.56;;;19.50;74.54
80759;BME280;70150;45.582;10.178;2023-08-06T04:05:18;98742.78;;;19.47;74.74
80759;BME280;70150;45.582;10.178;2023-08-06T04:07:43;98742.34;;;19.36;74.93
80759;BME280;70150;45.582;10.178;2023-08-06T04:10:09;98736.13;;;19.36;74.68
80759;BME280;70150;45.582;10.178;2023-08-06T04:12:37;98735.59;;;19.41;74.28
80759;BME280;70150;45.582;10.178;2023-08-06T04:15:05;98740.69;;;19.51;73.78
80759;BME280;70150;45.582;10.178;2023-08-06T04:17:30;98740.88;;;19.57;73.31
80759;BME280;70150;45.582;10.178;2023-08-06T04:19:56;98736.22;;;19.57;73.10
80759;BME280;70150;45.582;10.178;2023-08-06T04:22:26;98739.88;;;19.63;72.77
80759;BME280;70150;45.582;10.178;2023-08-06T04:24:51;98744.09;;;19.77;72.17
80759;BME280;70150;45.582;10.178;2023-08-06T04:27:18;98747.66;;;19.87;71.76
80759;BME280;70150;45.582;10.178;2023-08-06T04:29:44;98759.94;;;19.91;71.78
80759;BME280;70150;45.582;10.178;2023-08-06T04:32:10;98765.41;;;19.91;71.66
80759;BME280;70150;45.582;10.178;2023-08-06T04:34:36;98771.91;;;19.94;72.64
80759;BME280;70150;45.582;10.178;2023-08-06T04:37:03;98783.06;;;19.87;73.65
80759;BME280;70150;45.582;10.178;2023-08-06T04:39:29;98789.72;;;19.86;73.97
80759;BME280;70150;45.582;10.178;2023-08-06T04:41:56;98782.50;;;19.92;74.43
80759;BME280;70150;45.582;10.178;2023-08-06T04:44:23;98780.91;;;20.03;73.69
80759;BME280;70150;45.582;10.178;2023-08-06T04:46:48;98773.38;;;20.07;73.61
80759;BME280;70150;45.582;10.178;2023-08-06T04:49:14;98773.63;;;20.00;72.74
80759;BME280;70150;45.582;10.178;2023-08-06T04:51:40;98769.59;;;20.05;72.03
80759;BME280;70150;45.582;10.178;2023-08-06T04:54:05;98768.38;;;20.06;71.70
80759;BME280;70150;45.582;10.178;2023-08-06T04:56:31;98773.81;;;20.18;71.21
80759;BME280;70150;45.582;10.178;2023-08-06T04:58:58;98779.75;;;20.26;71.87
80759;BME280;70150;45.582;10.178;2023-08-06T05:01:24;98792.25;;;20.02;73.23
80759;BME280;70150;45.582;10.178;2023-08-06T05:03:50;98786.47;;;20.00;73.87
80759;BME280;70150;45.582;10.178;2023-08-06T05:06:15;98780.91;;;20.16;73.45
80759;BME280;70150;45.582;10.178;2023-08-06T05:08:41;98783.69;;;20.25;73.00
80759;BME280;70150;45.582;10.178;2023-08-06T05:11:07;98795.53;;;20.31;73.24
80759;BME280;70150;45.582;10.178;2023-08-06T05:13:32;98796.78;;;20.39;72.70
80759;BME280;70150;45.582;10.178;2023-08-06T05:15:58;98796.13;;;20.47;72.48
80759;BME280;70150;45.582;10.178;2023-08-06T05:18:25;98794.03;;;21.03;70.51
80759;BME280;70150;45.582;10.178;2023-08-06T05:20:51;98785.59;;;22.67;65.22
80759;BME280;70150;45.582;10.178;2023-08-06T05:23:16;98783.38;;;24.11;60.55
80759;BME280;70150;45.582;10.178;2023-08-06T05:25:42;98796.66;;;25.14;56.56
80759;BME280;70150;45.582;10.178;2023-08-06T05:28:07;98802.50;;;25.91;54.46
80759;BME280;70150;45.582;10.178;2023-08-06T05:30:33;98796.19;;;26.51;52.44
80759;BME280;70150;45.582;10.178;2023-08-06T05:32:59;98800.50;;;27.14;50.72
80759;BME280;70150;45.582;10.178;2023-08-06T05:35:24;98796.19;;;27.38;49.89
80759;BME280;70150;45.582;10.178;2023-08-06T05:37:50;98794.88;;;28.40;46.61
80759;BME280;70150;45.582;10.178;2023-08-06T05:40:16;98796.59;;;28.21;46.97
80759;BME280;70150;45.582;10.178;2023-08-06T05:42:41;98791.94;;;28.71;46.29
80759;BME280;70150;45.582;10.178;2023-08-06T05:45:08;98794.72;;;29.15;44.97
80759;BME280;70150;45.582;10.178;2023-08-06T05:47:33;98787.22;;;30.01;43.50
80759;BME280;70150;45.582;10.178;2023-08-06T05:49:59;98783.94;;;30.89;41.12
80759;BME280;70150;45.582;10.178;2023-08-06T05:52:25;98778.06;;;31.52;39.37
80759;BME280;70150;45.582;10.178;2023-08-06T05:54:50;98772.72;;;32.70;37.46
80759;BME280;70150;45.582;10.178;2023-08-06T05:57:16;98777.16;;;33.37;36.39
80759;BME280;70150;45.582;10.178;2023-08-06T05:59:42;98788.09;;;33.74;35.42
80759;BME280;70150;45.582;10.178;2023-08-06T06:02:07;98784.44;;;33.66;34.49
80759;BME280;70150;45.582;10.178;2023-08-06T06:04:33;98789.47;;;33.93;34.02
80759;BME280;70150;45.582;10.178;2023-08-06T06:06:59;98788.84;;;34.00;33.55
80759;BME280;70150;45.582;10.178;2023-08-06T06:09:24;98786.31;;;33.05;34.32
80759;BME280;70150;45.582;10.178;2023-08-06T06:11:50;98780.66;;;33.24;33.23
80759;BME280;70150;45.582;10.178;2023-08-06T06:14:17;98786.75;;;33.23;33.53
80759;BME280;70150;45.582;10.178;2023-08-06T06:16:42;98793.69;;;32.84;34.48
80759;BME280;70150;45.582;10.178;2023-08-06T06:19:08;98801.78;;;33.98;32.50
80759;BME280;70150;45.582;10.178;2023-08-06T06:21:33;98802.94;;;34.62;31.22
80759;BME280;70150;45.582;10.178;2023-08-06T06:23:59;98795.59;;;35.62;29.52
80759;BME280;70150;45.582;10.178;2023-08-06T06:26:25;98798.44;;;35.97;28.90
80759;BME280;70150;45.582;10.178;2023-08-06T06:28:50;98800.47;;;35.20;30.31
80759;BME280;70150;45.582;10.178;2023-08-06T06:31:16;98800.91;;;35.80;28.82
80759;BME280;70150;45.582;10.178;2023-08-06T06:33:41;98795.41;;;36.39;28.00
80759;BME280;70150;45.582;10.178;2023-08-06T06:36:07;98803.66;;;38.34;25.97
80759;BME280;70150;45.582;10.178;2023-08-06T06:38:33;98800.44;;;39.68;24.27
80759;BME280;70150;45.582;10.178;2023-08-06T06:40:59;98802.06;;;39.12;26.05
80759;BME280;70150;45.582;10.178;2023-08-06T06:43:25;98807.97;;;38.67;25.60
80759;BME280;70150;45.582;10.178;2023-08-06T06:45:53;98812.00;;;38.17;26.92
80759;BME280;70150;45.582;10.178;2023-08-06T06:48:19;98809.84;;;38.97;25.90
80759;BME280;70150;45.582;10.178;2023-08-06T06:50:47;98803.34;;;40.65;24.28
80759;BME280;70150;45.582;10.178;2023-08-06T06:53:13;98805.88;;;41.43;23.41
80759;BME280;70150;45.582;10.178;2023-08-06T06:55:39;98789.44;;;41.58;22.99
80759;BME280;70150;45.582;10.178;2023-08-06T06:58:05;98791.56;;;41.12;23.22
80759;BME280;70150;45.582;10.178;2023-08-06T07:00:30;98787.75;;;40.54;24.30
80759;BME280;70150;45.582;10.178;2023-08-06T07:02:56;98790.13;;;41.30;22.87
80759;BME280;70150;45.582;10.178;2023-08-06T07:05:21;98794.53;;;40.78;24.27
80759;BME280;70150;45.582;10.178;2023-08-06T07:07:47;98800.00;;;40.49;24.37
80759;BME280;70150;45.582;10.178;2023-08-06T07:10:13;98800.56;;;37.68;27.95
80759;BME280;70150;45.582;10.178;2023-08-06T07:12:38;98813.13;;;34.13;33.55
80759;BME280;70150;45.582;10.178;2023-08-06T07:15:06;98809.50;;;32.02;37.54
80759;BME280;70150;45.582;10.178;2023-08-06T07:17:34;98805.84;;;31.46;38.98
80759;BME280;70150;45.582;10.178;2023-08-06T07:19:59;98805.72;;;31.03;39.28
80759;BME280;70150;45.582;10.178;2023-08-06T07:22:25;98798.31;;;29.95;41.56
80759;BME280;70150;45.582;10.178;2023-08-06T07:24:51;98789.19;;;30.11;41.37
80759;BME280;70150;45.582;10.178;2023-08-06T07:27:16;98779.41;;;29.03;44.59
80759;BME280;70150;45.582;10.178;2023-08-06T07:29:42;98779.13;;;28.90;44.02
80759;BME280;70150;45.582;10.178;2023-08-06T07:32:07;98777.91;;;29.08;43.71
80759;BME280;70150;45.582;10.178;2023-08-06T07:34:33;98784.69;;;29.12;44.01
80759;BME280;70150;45.582;10.178;2023-08-06T07:36:58;98780.13;;;29.20;44.72
80759;BME280;70150;45.582;10.178;2023-08-06T07:39:25;98781.91;;;28.96;45.08
80759;BME280;70150;45.582;10.178;2023-08-06T07:41:50;98782.66;;;28.85;44.58
80759;BME280;70150;45.582;10.178;2023-08-06T07:44:16;98781.16;;;28.73;46.80
80759;BME280;70150;45.582;10.178;2023-08-06T07:46:41;98780.13;;;28.71;45.45
80759;BME280;70150;45.582;10.178;2023-08-06T07:49:08;98773.63;;;28.79;44.89
80759;BME280;70150;45.582;10.178;2023-08-06T07:51:33;98775.13;;;28.86;44.79
80759;BME280;70150;45.582;10.178;2023-08-06T07:53:59;98776.31;;;28.35;47.18
80759;BME280;70150;45.582;10.178;2023-08-06T07:56:25;98781.31;;;28.20;47.46
80759;BME280;70150;45.582;10.178;2023-08-06T07:58:50;98775.88;;;28.59;46.62
80759;BME280;70150;45.582;10.178;2023-08-06T08:01:16;98788.91;;;27.83;48.66
80759;BME280;70150;45.582;10.178;2023-08-06T08:03:43;98785.06;;;28.17;48.57
80759;BME280;70150;45.582;10.178;2023-08-06T08:06:09;98786.41;;;27.85;49.24
80759;BME280;70150;45.582;10.178;2023-08-06T08:08:35;98778.28;;;28.18;48.65
80759;BME280;70150;45.582;10.178;2023-08-06T08:11:03;98771.75;;;28.16;49.04
80759;BME280;70150;45.582;10.178;2023-08-06T08:13:29;98773.97;;;28.06;48.29
80759;BME280;70150;45.582;10.178;2023-08-06T08:15:58;98781.31;;;27.67;48.50
80759;BME280;70150;45.582;10.178;2023-08-06T08:18:24;98786.28;;;28.10;48.39
80759;BME280;70150;45.582;10.178;2023-08-06T08:20:50;98774.75;;;28.17;48.53
80759;BME280;70150;45.582;10.178;2023-08-06T08:23:15;98779.00;;;28.13;48.40
80759;BME280;70150;45.582;10.178;2023-08-06T08:25:41;98787.59;;;28.26;47.48
80759;BME280;70150;45.582;10.178;2023-08-06T08:28:07;98781.25;;;28.03;47.55
80759;BME280;70150;45.582;10.178;2023-08-06T08:30:35;98783.56;;;28.27;48.34
80759;BME280;70150;45.582;10.178;2023-08-06T08:33:01;98785.06;;;28.28;48.43
80759;BME280;70150;45.582;10.178;2023-08-06T08:35:26;98783.28;;;28.20;48.42
80759;BME280;70150;45.582;10.178;2023-08-06T08:37:52;98771.94;;;27.90;48.16
80759;BME280;70150;45.582;10.178;2023-08-06T08:40:18;98770.28;;;27.67;48.97
80759;BME280;70150;45.582;10.178;2023-08-06T08:42:43;98773.75;;;28.21;48.47
80759;BME280;70150;45.582;10.178;2023-08-06T08:45:12;98768.00;;;28.30;46.79
80759;BME280;70150;45.582;10.178;2023-08-06T08:47:40;98773.78;;;28.32;46.10
80759;BME280;70150;45.582;10.178;2023-08-06T08:50:09;98771.34;;;28.50;46.36
80759;BME280;70150;45.582;10.178;2023-08-06T08:52:38;98776.75;;;28.11;47.61
80759;BME280;70150;45.582;10.178;2023-08-06T08:55:04;98778.16;;;27.85;46.61
80759;BME280;70150;45.582;10.178;2023-08-06T08:57:30;98785.78;;;28.12;47.51
80759;BME280;70150;45.582;10.178;2023-08-06T08:59:56;98789.84;;;28.39;45.82
80759;BME280;70150;45.582;10.178;2023-08-06T09:02:23;98792.63;;;28.44;45.96
80759;BME280;70150;45.582;10.178;2023-08-06T09:04:51;98797.91;;;28.42;46.17
80759;BME280;70150;45.582;10.178;2023-08-06T09:07:18;98794.56;;;28.16;45.55
80759;BME280;70150;45.582;10.178;2023-08-06T09:09:48;98795.50;;;27.91;46.83
80759;BME280;70150;45.582;10.178;2023-08-06T09:12:15;98793.16;;;27.84;46.32
80759;BME280;70150;45.582;10.178;2023-08-06T09:14:42;98788.09;;;28.25;45.41
80759;BME280;70150;45.582;10.178;2023-08-06T09:17:08;98778.03;;;28.27;47.41
80759;BME280;70150;45.582;10.178;2023-08-06T09:19:36;98782.03;;;28.21;46.40
80759;BME280;70150;45.582;10.178;2023-08-06T09:22:02;98785.66;;;28.54;45.45
80759;BME280;70150;45.582;10.178;2023-08-06T09:24:28;98782.81;;;28.27;44.73
80759;BME280;70150;45.582;10.178;2023-08-06T09:26:54;98778.63;;;28.53;43.17
80759;BME280;70150;45.582;10.178;2023-08-06T09:29:20;98783.16;;;28.78;42.94
80759;BME280;70150;45.582;10.178;2023-08-06T09:31:48;98787.69;;;28.92;42.72
80759;BME280;70150;45.582;10.178;2023-08-06T09:34:16;98780.63;;;29.02;42.34
80759;BME280;70150;45.582;10.178;2023-08-06T09:36:43;98779.38;;;28.98;44.13
80759;BME280;70150;45.582;10.178;2023-08-06T09:39:13;98779.91;;;29.18;41.73
80759;BME280;70150;45.582;10.178;2023-08-06T09:41:39;98781.66;;;29.21;44.63
80759;BME280;70150;45.582;10.178;2023-08-06T09:44:14;98784.16;;;29.30;43.23
80759;BME280;70150;45.582;10.178;2023-08-06T09:46:40;98786.38;;;29.48;42.80
80759;BME280;70150;45.582;10.178;2023-08-06T09:49:06;98780.09;;;29.48;42.26
80759;BME280;70150;45.582;10.178;2023-08-06T09:51:34;98781.34;;;29.58;43.22
80759;BME280;70150;45.582;10.178;2023-08-06T09:54:01;98772.56;;;29.37;42.97
80759;BME280;70150;45.582;10.178;2023-08-06T09:56:27;98779.56;;;29.60;42.92
80759;BME280;70150;45.582;10.178;2023-08-06T09:58:54;98775.81;;;29.58;42.51
80759;BME280;70150;45.582;10.178;2023-08-06T10:01:21;98785.09;;;29.71;43.27
80759;BME280;70150;45.582;10.178;2023-08-06T10:03:49;98775.25;;;29.76;38.70
80759;BME280;70150;45.582;10.178;2023-08-06T10:06:17;98774.47;;;29.87;39.04
80759;BME280;70150;45.582;10.178;2023-08-06T10:08:43;98781.31;;;29.52;38.79
80759;BME280;70150;45.582;10.178;2023-08-06T10:11:13;98779.28;;;29.75;40.24
80759;BME280;70150;45.582;10.178;2023-08-06T10:13:40;98777.06;;;29.62;35.37
80759;BME280;70150;45.582;10.178;2023-08-06T10:16:06;98777.28;;;29.59;36.28
80759;BME280;70150;45.582;10.178;2023-08-06T10:18:32;98773.28;;;29.54;35.10
80759;BME280;70150;45.582;10.178;2023-08-06T10:20:59;98771.25;;;29.60;36.35
80759;BME280;70150;45.582;10.178;2023-08-06T10:23:33;98766.50;;;29.66;34.67
80759;BME280;70150;45.582;10.178;2023-08-06T10:25:59;98769.00;;;29.64;36.71
80759;BME280;70150;45.582;10.178;2023-08-06T10:28:36;98762.97;;;29.71;33.70
80759;BME280;70150;45.582;10.178;2023-08-06T10:31:03;98762.97;;;29.66;34.80
80759;BME280;70150;45.582;10.178;2023-08-06T10:33:40;98759.69;;;29.67;32.54
80759;BME280;70150;45.582;10.178;2023-08-06T10:36:08;98759.47;;;29.65;33.43
80759;BME280;70150;45.582;10.178;2023-08-06T10:38:35;98757.69;;;29.68;32.86
80759;BME280;70150;45.582;10.178;2023-08-06T10:41:15;98757.38;;;29.83;31.11
80759;BME280;70150;45.582;10.178;2023-08-06T10:43:41;98751.13;;;29.71;31.31
80759;BME280;70150;45.582;10.178;2023-08-06T10:46:10;98755.19;;;29.59;32.54
80759;BME280;70150;45.582;10.178;2023-08-06T10:48:39;98761.44;;;29.70;33.06
80759;BME280;70150;45.582;10.178;2023-08-06T10:51:09;98750.41;;;29.59;31.66
80759;BME280;70150;45.582;10.178;2023-08-06T10:53:35;98750.38;;;29.70;33.21
80759;BME280;70150;45.582;10.178;2023-08-06T10:56:02;98754.19;;;29.56;31.40
80759;BME280;70150;45.582;10.178;2023-08-06T11:00:56;98737.81;;;29.69;31.56
80759;BME280;70150;45.582;10.178;2023-08-06T11:03:22;98738.75;;;29.83;31.25
80759;BME280;70150;45.582;10.178;2023-08-06T11:05:49;98735.19;;;29.94;31.34
80759;BME280;70150;45.582;10.178;2023-08-06T11:10:51;98737.56;;;29.73;31.19
80759;BME280;70150;45.582;10.178;2023-08-06T11:13:17;98730.72;;;29.79;28.86
80759;BME280;70150;45.582;10.178;2023-08-06T11:15:44;98728.22;;;29.82;26.67
80759;BME280;70150;45.582;10.178;2023-08-06T11:18:10;98731.22;;;29.84;25.85
80759;BME280;70150;45.582;10.178;2023-08-06T11:20:36;98724.38;;;29.90;26.10
80759;BME280;70150;45.582;10.178;2023-08-06T11:23:05;98721.19;;;29.81;24.88
80759;BME280;70150;45.582;10.178;2023-08-06T11:25:37;98726.00;;;29.74;24.60
80759;BME280;70150;45.582;10.178;2023-08-06T11:28:09;98722.97;;;29.72;24.98
80759;BME280;70150;45.582;10.178;2023-08-06T11:30:35;98715.44;;;29.73;24.66
80759;BME280;70150;45.582;10.178;2023-08-06T11:33:00;98717.91;;;29.82;25.24
80759;BME280;70150;45.582;10.178;2023-08-06T11:35:26;98708.09;;;29.87;23.84
80759;BME280;70150;45.582;10.178;2023-08-06T11:37:52;98726.63;;;29.97;27.10
80759;BME280;70150;45.582;10.178;2023-08-06T11:40:17;98718.03;;;30.01;25.06
80759;BME280;70150;45.582;10.178;2023-08-06T11:42:43;98711.72;;;30.06;25.58
80759;BME280;70150;45.582;10.178;2023-08-06T11:45:09;98713.97;;;30.13;26.19
80759;BME280;70150;45.582;10.178;2023-08-06T11:47:38;98710.47;;;30.07;25.19
80759;BME280;70150;45.582;10.178;2023-08-06T11:50:05;98703.69;;;30.08;24.65
80759;BME280;70150;45.582;10.178;2023-08-06T11:52:31;98714.44;;;30.17;26.09
80759;BME280;70150;45.582;10.178;2023-08-06T11:57:30;98707.06;;;30.30;25.67
80759;BME280;70150;45.582;10.178;2023-08-06T12:00:02;98695.03;;;30.28;23.37
80759;BME280;70150;45.582;10.178;2023-08-06T12:02:31;98702.56;;;30.27;23.33
80759;BME280;70150;45.582;10.178;2023-08-06T12:05:02;98702.00;;;30.34;24.98
80759;BME280;70150;45.582;10.178;2023-08-06T12:07:29;98685.69;;;30.31;24.38
80759;BME280;70150;45.582;10.178;2023-08-06T12:09:56;98680.06;;;30.42;23.45
80759;BME280;70150;45.582;10.178;2023-08-06T12:12:24;98685.50;;;30.18;23.52
80759;BME280;70150;45.582;10.178;2023-08-06T12:14:50;98691.25;;;30.25;23.46
80759;BME280;70150;45.582;10.178;2023-08-06T12:17:16;98689.78;;;30.19;23.77
80759;BME280;70150;45.582;10.178;2023-08-06T12:19:44;98675.09;;;30.35;23.96
80759;BME280;70150;45.582;10.178;2023-08-06T12:22:09;98686.06;;;30.46;23.28
80759;BME280;70150;45.582;10.178;2023-08-06T12:24:35;98688.03;;;30.51;22.32
80759;BME280;70150;45.582;10.178;2023-08-06T12:27:01;98684.81;;;30.47;23.28
80759;BME280;70150;45.582;10.178;2023-08-06T12:29:28;98690.59;;;30.49;23.51
80759;BME280;70150;45.582;10.178;2023-08-06T12:31:53;98688.41;;;30.36;22.75
80759;BME280;70150;45.582;10.178;2023-08-06T12:34:19;98677.06;;;30.40;22.00
80759;BME280;70150;45.582;10.178;2023-08-06T12:36:44;98685.97;;;30.57;23.23
80759;BME280;70150;45.582;10.178;2023-08-06T12:39:10;98676.88;;;30.62;24.44
80759;BME280;70150;45.582;10.178;2023-08-06T12:41:36;98676.41;;;30.58;21.66
80759;BME280;70150;45.582;10.178;2023-08-06T12:44:01;98668.38;;;30.54;22.55
80759;BME280;70150;45.582;10.178;2023-08-06T12:46:27;98672.38;;;30.59;22.33
80759;BME280;70150;45.582;10.178;2023-08-06T12:48:53;98678.41;;;30.57;22.14
80759;BME280;70150;45.582;10.178;2023-08-06T12:51:18;98674.16;;;30.56;23.07
80759;BME280;70150;45.582;10.178;2023-08-06T12:53:46;98683.19;;;30.57;22.82
80759;BME280;70150;45.582;10.178;2023-08-06T12:56:12;98670.88;;;30.58;24.19